Time;durP1;ratioP1;P1;durP2;ratioP2;P2;SDS_P1;SDS_P2;PMS_P1;PMS_P2;Temp;Humidity;BMP_temperature;BMP_pressure;BME280_temperature;BME280_humidity;BME280_pressure;Samples;Min_cycle;Max_cycle;Signal;HPM_P1;HPM_P2
2022/06/05 00:00:23;;;;;;;3.97;3.67;;;;;;;19.15;100.00;99635.59;4740827;30;20236;-95
2022/06/05 00:03:18;;;;;;;4.53;3.90;;;;;;;19.10;100.00;99632.91;4751734;30;20313;-94
2022/06/05 00:06:08;;;;;;;4.20;3.80;;;;;;;19.04;100.00;99628.56;4755399;30;20276;-94
2022/06/05 00:08:46;;;;;;;3.87;3.57;;;;;;;18.97;100.00;99621.78;4754859;30;20234;-94
2022/06/05 00:11:13;;;;;;;4.20;3.77;;;;;;;19.09;100.00;99614.97;4755049;30;20320;-94
2022/06/05 00:13:49;;;;;;;4.27;3.87;;;;;;;18.97;100.00;99625.31;4755065;30;20270;-94
2022/06/05 00:16:19;;;;;;;4.00;3.60;;;;;;;18.97;100.00;99624.50;4741898;29;20276;-92
2022/06/05 00:18:46;;;;;;;4.30;3.90;;;;;;;18.98;100.00;99618.81;4754391;30;20238;-94
2022/06/05 00:21:14;;;;;;;4.00;3.63;;;;;;;19.00;100.00;99621.22;4757591;30;20238;-93
2022/06/05 00:23:41;;;;;;;4.87;3.87;;;;;;;19.04;100.00;99614.97;4754231;30;20242;-94
2022/06/05 00:26:49;;;;;;;4.47;3.70;;;;;;;18.94;100.00;99615.03;4757526;29;20330;-93
2022/06/05 00:29:47;;;;;;;4.23;3.50;;;;;;;18.92;100.00;99609.03;4768657;30;20265;-93
2022/06/05 00:32:31;;;;;;;3.77;3.43;;;;;;;18.88;100.00;99608.78;4775661;29;20706;-93
2022/06/05 00:34:58;;;;;;;3.90;3.60;;;;;;;18.81;100.00;99612.84;4768819;30;20233;-92
2022/06/05 00:37:33;;;;;;;4.00;3.63;;;;;;;18.79;100.00;99624.00;4759383;30;20281;-93
2022/06/05 00:40:09;;;;;;;3.70;3.40;;;;;;;18.75;100.00;99617.50;4755428;30;20265;-93
2022/06/05 00:42:36;;;;;;;4.10;3.70;;;;;;;18.73;100.00;99621.56;4756395;30;20270;-93
2022/06/05 00:45:09;;;;;;;4.63;4.10;;;;;;;18.81;100.00;99621.81;4738774;30;20272;-93
2022/06/05 00:47:36;;;;;;;4.30;3.90;;;;;;;18.77;100.00;99622.63;4753230;30;20271;-93
2022/06/05 00:50:09;;;;;;;4.13;3.67;;;;;;;18.73;100.00;99629.69;4751795;29;20242;-92
2022/06/05 00:52:40;;;;;;;4.27;3.97;;;;;;;18.64;100.00;99613.16;4758090;30;20336;-93
2022/06/05 00:55:08;;;;;;;4.20;3.90;;;;;;;18.64;100.00;99623.19;4753871;30;20245;-93
2022/06/05 00:57:37;;;;;;;4.00;3.70;;;;;;;18.59;100.00;99623.19;4768690;29;20270;-93
2022/06/05 01:00:16;;;;;;;4.43;4.03;;;;;;;18.46;100.00;99605.53;4751023;29;20250;-93
2022/06/05 01:02:45;;;;;;;4.20;3.80;;;;;;;18.51;100.00;99607.44;4765950;30;20242;-93
2022/06/05 01:05:13;;;;;;;5.00;4.00;;;;;;;18.65;100.00;99606.66;4756198;30;20249;-93
2022/06/05 01:07:41;;;;;;;5.40;4.17;;;;;;;18.55;100.00;99606.66;4744318;30;20684;-93
2022/06/05 01:10:09;;;;;;;4.80;4.40;;;;;;;18.49;100.00;99603.09;4754351;29;20369;-93
2022/06/05 01:12:42;;;;;;;4.60;4.20;;;;;;;18.37;100.00;99604.44;4757968;30;20250;-93
2022/06/05 01:15:16;;;;;;;5.00;4.60;;;;;;;18.35;100.00;99603.91;4766629;30;20250;-93
2022/06/05 01:17:56;;;;;;;5.43;5.03;;;;;;;18.34;100.00;99604.97;4756816;30;20291;-93
2022/06/05 01:20:38;;;;;;;5.00;4.60;;;;;;;18.34;100.00;99610.41;4750231;30;20238;-94
2022/06/05 01:23:32;;;;;;;5.50;5.00;;;;;;;18.32;100.00;99599.03;4734693;30;20354;-93
2022/06/05 01:26:17;;;;;;;5.33;4.83;;;;;;;18.31;100.00;99594.69;4753322;30;20258;-94
2022/06/05 01:29:33;;;;;;;5.90;5.40;;;;;;;18.40;100.00;99598.47;4751008;30;20234;-94
2022/06/05 01:32:10;;;;;;;5.63;5.13;;;;;;;18.23;100.00;99601.47;4751163;30;20279;-94
2022/06/05 01:34:47;;;;;;;6.03;5.53;;;;;;;18.15;100.00;99598.47;4738825;30;20312;-93
2022/06/05 01:37:18;;;;;;;6.23;5.63;;;;;;;18.34;100.00;99602.25;4755751;30;20242;-93
2022/06/05 01:39:48;;;;;;;6.50;5.90;;;;;;;18.18;100.00;99608.78;4738559;30;20241;-94
2022/06/05 01:42:30;;;;;;;6.37;5.77;;;;;;;18.14;100.00;99602.25;4751697;30;20247;-94
2022/06/05 01:45:00;;;;;;;6.37;5.83;;;;;;;18.11;100.00;99591.94;4735605;30;20249;-93
2022/06/05 01:47:33;;;;;;;6.40;5.70;;;;;;;18.09;100.00;99599.53;4734347;30;20247;-94
2022/06/05 01:50:06;;;;;;;6.60;6.00;;;;;;;18.07;100.00;99597.09;4736849;30;20254;-93
2022/06/05 01:52:40;;;;;;;6.50;6.00;;;;;;;18.04;100.00;99587.63;4763579;30;20235;-94
2022/06/05 01:55:13;;;;;;;6.20;5.70;;;;;;;18.08;100.00;99587.88;4750724;30;20276;-94
2022/06/05 01:57:40;;;;;;;6.60;6.10;;;;;;;18.06;100.00;99595.47;4783119;29;20256;-93
2022/06/05 02:00:13;;;;;;;6.67;6.10;;;;;;;17.99;100.00;99593.03;4753020;29;20236;-93
2022/06/05 02:02:52;;;;;;;7.00;6.50;;;;;;;17.95;100.00;99583.00;4768157;29;20236;-94
2022/06/05 02:05:55;;;;;;;7.00;6.40;;;;;;;17.96;100.00;99590.84;4753179;30;20721;-93
2022/06/05 02:08:29;;;;;;;7.57;6.90;;;;;;;17.95;100.00;99591.13;4752679;30;20266;-94
2022/06/05 02:11:10;;;;;;;7.50;6.90;;;;;;;17.91;100.00;99582.72;4753148;30;20305;-94
2022/06/05 02:13:37;;;;;;;8.10;7.40;;;;;;;17.90;100.00;99577.56;4748940;30;20250;-94
2022/06/05 02:16:04;;;;;;;7.83;7.03;;;;;;;17.91;100.00;99584.63;4767163;29;20733;-93
2022/06/05 02:18:32;;;;;;;8.27;7.67;;;;;;;17.90;100.00;99577.56;4755717;30;20234;-94
2022/06/05 02:20:58;;;;;;;8.03;7.40;;;;;;;17.88;100.00;99580.53;4768177;30;20236;-94
2022/06/05 02:23:27;;;;;;;9.10;8.40;;;;;;;17.95;100.00;99572.97;4753277;30;20241;-93
2022/06/05 02:25:54;;;;;;;8.13;7.43;;;;;;;17.94;100.00;99576.75;4754095;30;20269;-94
2022/06/05 02:28:21;;;;;;;9.13;8.43;;;;;;;17.93;100.00;99574.31;4742319;30;20234;-94
2022/06/05 02:31:01;;;;;;;9.17;8.47;;;;;;;17.97;100.00;99583.53;4756526;30;20263;-93
2022/06/05 02:33:50;;;;;;;9.00;8.33;;;;;;;17.93;100.00;99585.16;4771023;29;20317;-93
2022/06/05 02:36:37;;;;;;;9.60;8.80;;;;;;;17.92;100.00;99591.63;4769919;29;20243;-93
2022/06/05 02:39:13;;;;;;;9.47;8.60;;;;;;;17.90;100.00;99591.94;4757666;30;21459;-93
2022/06/05 02:41:56;;;;;;;9.53;8.73;;;;;;;17.85;100.00;99582.97;4767505;30;20251;-93
2022/06/05 02:44:32;;;;;;;9.30;8.47;;;;;;;17.86;100.00;99582.72;4756014;30;20244;-93
2022/06/05 02:47:11;;;;;;;9.80;9.07;;;;;;;18.02;100.00;99588.94;4757081;30;20235;-93
2022/06/05 02:49:53;;;;;;;10.27;9.47;;;;;;;17.94;100.00;99584.88;4773678;30;20791;-93
2022/06/05 02:52:22;;;;;;;10.27;9.37;;;;;;;17.89;100.00;99590.28;4758226;30;20248;-93
2022/06/05 02:55:12;;;;;;;10.40;9.60;;;;;;;17.83;100.00;99593.25;4755620;30;20323;-93
2022/06/05 02:57:41;;;;;;;10.00;9.20;;;;;;;17.81;100.00;99601.66;4737509;30;20356;-94
2022/06/05 03:00:16;;;;;;;10.17;9.37;;;;;;;17.80;100.00;99602.75;4757921;29;20353;-94
2022/06/05 03:05:28;;;;;;;9.97;9.17;;;;;;;17.76;100.00;99601.66;4760487;30;20236;-93
2022/06/05 03:07:55;;;;;;;10.13;9.33;;;;;;;17.78;100.00;99606.78;4743186;30;20341;-94
2022/06/05 03:10:22;;;;;;;11.07;10.17;;;;;;;17.81;100.00;99612.50;4769609;29;20314;-94
2022/06/05 03:12:49;;;;;;;11.03;10.23;;;;;;;17.86;100.00;99606.28;4760731;30;20332;-94
2022/06/05 03:15:16;;;;;;;10.77;9.77;;;;;;;17.93;100.00;99615.78;4756651;30;20243;-94
2022/06/05 03:17:43;;;;;;;10.80;10.00;;;;;;;17.99;100.00;99619.31;4758092;30;20240;-94
2022/06/05 03:20:13;;;;;;;11.43;10.53;;;;;;;18.07;100.00;99617.97;4759654;29;20270;-94
2022/06/05 03:22:40;;;;;;;10.67;9.77;;;;;;;18.16;100.00;99624.47;4760602;30;20244;-94
2022/06/05 03:25:08;;;;;;;11.37;10.47;;;;;;;18.21;100.00;99621.78;4770451;30;20319;-94
2022/06/05 03:27:35;;;;;;;10.67;9.87;;;;;;;18.29;100.00;99623.97;4753595;30;20701;-94
2022/06/05 03:30:02;;;;;;;11.83;10.83;;;;;;;18.31;100.00;99630.75;4755322;29;20286;-94
2022/06/05 03:32:30;;;;;;;11.77;10.67;;;;;;;18.38;100.00;99631.28;4759480;30;20268;-93
2022/06/05 03:34:56;;;;;;;11.37;10.47;;;;;;;18.44;100.00;99634.81;4740852;30;20240;-94
2022/06/05 03:37:23;;;;;;;10.83;10.00;;;;;;;18.38;100.00;99631.28;4739220;30;20594;-94
2022/06/05 03:39:50;;;;;;;11.83;10.83;;;;;;;18.40;100.00;99629.13;4755595;30;20259;-94
2022/06/05 03:42:17;;;;;;;11.30;10.30;;;;;;;18.44;100.00;99632.09;4754741;30;20238;-94
2022/06/05 03:44:43;;;;;;;11.53;10.63;;;;;;;18.42;100.00;99628.88;4755276;30;20306;-93
2022/06/05 03:47:12;;;;;;;11.37;10.30;;;;;;;18.54;100.00;99624.00;4763712;30;20789;-95
2022/06/05 03:49:39;;;;;;;10.93;10.03;;;;;;;18.61;100.00;99634.59;4749170;30;20235;-95
2022/06/05 03:52:07;;;;;;;11.40;10.50;;;;;;;18.75;100.00;99639.22;4754714;30;20244;-93
2022/06/05 03:54:34;;;;;;;11.70;10.70;;;;;;;18.66;100.00;99637.31;4754644;30;20325;-94
2022/06/05 03:57:02;;;;;;;11.80;10.70;;;;;;;18.85;100.00;99631.03;4745746;30;20237;-94
2022/06/05 03:59:28;;;;;;;11.50;10.60;;;;;;;19.71;100.00;99636.25;4759712;30;20324;-93
2022/06/05 04:01:55;;;;;;;10.80;9.90;;;;;;;20.40;100.00;99639.94;4745324;30;20243;-93
2022/06/05 04:04:23;;;;;;;11.07;9.97;;;;;;;21.00;100.00;99630.41;4754433;29;20740;-94
2022/06/05 04:06:49;;;;;;;10.57;9.77;;;;;;;21.51;100.00;99631.50;4754885;30;20256;-93
2022/06/05 04:09:16;;;;;;;10.93;9.90;;;;;;;21.70;100.00;99619.81;4755063;30;20376;-93
2022/06/05 04:11:43;;;;;;;10.90;10.00;;;;;;;21.91;100.00;99630.19;4769287;29;20238;-93
2022/06/05 04:14:10;;;;;;;10.30;9.33;;;;;;;22.22;100.00;99633.31;4768739;30;20267;-93
2022/06/05 04:16:39;;;;;;;10.20;9.40;;;;;;;22.25;100.00;99637.38;4759328;30;20591;-93
2022/06/05 04:19:07;;;;;;;9.57;8.87;;;;;;;22.09;100.00;99634.06;4754678;30;20275;-92
2022/06/05 04:21:35;;;;;;;9.97;9.20;;;;;;;22.12;100.00;99638.09;4769114;30;20306;-93
2022/06/05 04:24:03;;;;;;;11.23;10.10;;;;;;;22.44;100.00;99657.28;4754195;29;20242;-92
2022/06/05 04:26:32;;;;;;;11.50;10.60;;;;;;;22.86;100.00;99734.75;4754180;30;20239;-94
2022/06/05 04:29:00;;;;;;;10.70;9.80;;;;;;;23.59;100.00;99762.19;4754601;30;20245;-93
2022/06/05 04:31:30;;;;;;;9.97;9.17;;;;;;;23.98;100.00;99690.56;4744455;30;20277;-93
2022/06/05 04:33:59;;;;;;;10.40;9.50;;;;;;;23.30;100.00;99628.47;4754328;30;20239;-94
2022/06/05 04:36:26;;;;;;;11.03;10.20;;;;;;;23.07;100.00;99626.72;4768435;30;20236;-94
2022/06/05 04:38:53;;;;;;;11.20;10.20;;;;;;;22.77;100.00;99628.06;4741888;30;20236;-92
2022/06/05 04:41:20;;;;;;;10.80;10.00;;;;;;;22.31;100.00;99622.53;4739513;30;20266;-93
2022/06/05 04:43:48;;;;;;;12.33;11.43;;;;;;;21.82;100.00;99621.03;4756773;30;20265;-93
2022/06/05 04:46:17;;;;;;;11.43;10.53;;;;;;;21.75;100.00;99617.84;4753363;30;20255;-92
2022/06/05 04:48:44;;;;;;;11.60;10.60;;;;;;;21.78;100.00;99616.47;4753857;30;20245;-93
2022/06/05 04:51:15;;;;;;;11.80;10.73;;;;;;;21.79;100.00;99620.81;4754328;30;20247;-94
2022/06/05 04:53:42;;;;;;;10.70;9.83;;;;;;;21.93;100.00;99627.16;4744669;30;20270;-93
2022/06/05 04:56:21;;;;;;;12.18;11.27;;;;;;;21.79;100.00;99624.34;4721442;30;20250;-88
2022/06/05 04:58:49;;;;;;;12.70;11.80;;;;;;;21.60;100.00;99626.25;4750543;30;20248;-88
2022/06/05 05:01:21;;;;;;;14.63;13.50;;;;;;;21.54;100.00;99624.69;4736757;30;20309;-88
2022/06/05 05:03:52;;;;;;;14.77;13.57;;;;;;;21.29;100.00;99622.25;4750610;30;20237;-88
2022/06/05 05:06:20;;;;;;;14.10;12.90;;;;;;;21.20;100.00;99621.25;4720955;30;20303;-88
2022/06/05 05:08:47;;;;;;;14.37;13.17;;;;;;;21.42;100.00;99621.53;4736045;30;20387;-88
2022/06/05 05:11:15;;;;;;;14.10;13.00;;;;;;;21.52;100.00;99624.97;4735811;30;20302;-88
2022/06/05 05:13:42;;;;;;;14.43;13.27;;;;;;;21.74;100.00;99620.88;4733815;30;20307;-88
2022/06/05 05:16:10;;;;;;;14.70;13.50;;;;;;;21.82;100.00;99617.50;4723452;30;20785;-88
2022/06/05 05:18:38;;;;;;;15.13;13.87;;;;;;;21.77;100.00;99615.66;4735868;30;20758;-91
2022/06/05 05:21:11;;;;;;;14.30;13.10;;;;;;;22.00;100.00;99626.81;4734962;30;20778;-88
2022/06/05 05:23:38;;;;;;;14.47;13.30;;;;;;;21.97;100.00;99616.50;4735665;30;20331;-90
2022/06/05 05:26:09;;;;;;;13.90;12.77;;;;;;;22.12;100.00;99619.00;4749843;30;20677;-88
2022/06/05 05:28:38;;;;;;;15.20;14.00;;;;;;;22.14;100.00;99622.25;4747877;30;20250;-88
2022/06/05 05:31:09;;;;;;;14.10;13.00;;;;;;;22.41;100.00;99625.09;4736149;30;20273;-89
2022/06/05 05:33:38;;;;;;;14.07;12.87;;;;;;;22.52;100.00;99623.03;4721147;30;20240;-87
2022/06/05 05:36:07;;;;;;;14.40;13.20;;;;;;;22.73;100.00;99627.06;4747723;30;20716;-88
2022/06/05 05:38:34;;;;;;;14.02;12.88;;;;;;;22.78;100.00;99633.25;4737070;30;20278;-88
2022/06/05 05:43:46;;;;;;;14.32;13.23;;;;;;;23.02;100.00;99629.53;4737900;30;20243;-88
2022/06/05 05:46:15;;;;;;;14.32;13.23;;;;;;;22.94;100.00;99628.34;4725637;30;20236;-89
2022/06/05 05:48:42;;;;;;;14.67;13.47;;;;;;;23.24;100.00;99616.00;4735499;30;20526;-88
2022/06/05 05:51:10;;;;;;;15.50;14.00;;;;;;;23.16;100.00;99611.25;4731006;30;20243;-91
2022/06/05 05:53:37;;;;;;;15.30;14.07;;;;;;;23.02;100.00;99615.88;4735840;30;20279;-89
2022/06/05 05:56:06;;;;;;;14.15;12.95;;;;;;;22.86;100.00;99611.81;4734841;29;20251;-89
2022/06/05 05:58:33;;;;;;;14.57;13.40;;;;;;;22.73;100.00;99605.19;4755094;30;20595;-89
2022/06/05 06:01:02;;;;;;;15.13;13.90;;;;;;;22.98;100.00;99603.94;4738315;30;20235;-88
2022/06/05 06:03:29;;;;;;;14.73;13.52;;;;;;;23.00;100.00;99599.81;4737119;30;20247;-92
2022/06/05 06:05:58;;;;;;;15.23;14.03;;;;;;;22.58;100.00;99614.47;4739531;30;20771;-91
2022/06/05 06:08:25;;;;;;;14.95;13.65;;;;;;;22.51;100.00;99621.41;4746139;30;20255;-89
2022/06/05 06:10:51;;;;;;;15.40;14.00;;;;;;;22.18;100.00;99615.91;4737855;30;20238;-90
2022/06/05 06:13:18;;;;;;;15.67;14.47;;;;;;;22.48;100.00;99624.72;4744332;30;20334;-88
2022/06/05 06:15:45;;;;;;;16.00;14.73;;;;;;;22.76;100.00;99612.81;4742959;30;20239;-88
2022/06/05 06:18:19;;;;;;;15.45;14.05;;;;;;;22.90;100.00;99605.47;4741632;29;20729;-88
2022/06/05 06:20:46;;;;;;;14.57;13.47;;;;;;;23.02;100.00;99604.97;4738530;30;20242;-88
2022/06/05 06:23:14;;;;;;;15.43;14.17;;;;;;;23.17;100.00;99610.94;4738101;30;20238;-88
2022/06/05 06:25:41;;;;;;;15.35;14.15;;;;;;;23.56;100.00;99617.88;4736033;30;20721;-89
2022/06/05 06:28:09;;;;;;;15.45;14.15;;;;;;;23.54;100.00;99612.69;4741638;30;20248;-89
2022/06/05 06:30:37;;;;;;;15.10;13.75;;;;;;;23.76;100.00;99609.22;4745677;30;20259;-88
2022/06/05 06:33:04;;;;;;;15.93;14.52;;;;;;;23.92;100.00;99609.69;4744499;30;20236;-89
2022/06/05 06:35:30;;;;;;;14.88;13.57;;;;;;;24.03;100.00;99614.63;4726273;30;20793;-87
2022/06/05 06:37:57;;;;;;;15.52;14.20;;;;;;;23.80;100.00;99617.63;4723791;30;20735;-88
2022/06/05 06:40:24;;;;;;;15.80;14.20;;;;;;;23.61;100.00;99601.34;4723183;29;20239;-89
2022/06/05 06:42:54;;;;;;;15.70;14.40;;;;;;;23.52;100.00;99608.63;4739841;30;20229;-89
2022/06/05 06:45:23;;;;;;;14.40;13.18;;;;;;;23.59;100.00;99600.84;4747251;29;21967;-89
2022/06/05 06:47:49;;;;;;;14.45;13.32;;;;;;;23.61;100.00;99599.41;4726192;30;20240;-89
2022/06/05 06:50:17;;;;;;;15.65;14.27;;;;;;;23.73;100.00;99593.44;4750567;29;20295;-88
2022/06/05 06:52:44;;;;;;;14.80;13.55;;;;;;;23.80;100.00;99599.28;4737733;30;20319;-88
2022/06/05 06:55:12;;;;;;;16.00;14.70;;;;;;;23.54;100.00;99590.81;4757411;30;20232;-89
2022/06/05 06:57:39;;;;;;;15.90;14.60;;;;;;;23.83;100.00;99595.13;4766643;30;20320;-90
2022/06/05 07:00:07;;;;;;;15.02;13.80;;;;;;;23.66;100.00;99593.84;4739783;30;20251;-94
2022/06/05 07:02:33;;;;;;;15.98;14.45;;;;;;;24.07;100.00;99596.50;4755668;30;20264;-91
2022/06/05 07:05:00;;;;;;;16.85;15.45;;;;;;;24.31;100.00;99596.22;4754057;30;20254;-91
2022/06/05 07:07:27;;;;;;;15.23;13.93;;;;;;;24.35;100.00;99596.41;4755069;30;20246;-91
2022/06/05 07:09:54;;;;;;;16.10;14.80;;;;;;;24.22;100.00;99589.84;4753930;30;20256;-91
2022/06/05 07:12:21;;;;;;;15.20;14.00;;;;;;;24.16;100.00;99590.28;4762453;29;20272;-90
2022/06/05 07:14:48;;;;;;;16.52;15.13;;;;;;;23.97;100.00;99585.78;4772436;30;20235;-91
2022/06/05 07:17:15;;;;;;;16.35;15.05;;;;;;;23.90;100.00;99588.09;4745045;30;20717;-91
2022/06/05 07:19:42;;;;;;;17.33;15.82;;;;;;;24.04;100.00;99590.81;4756520;30;20243;-91
2022/06/05 07:22:09;;;;;;;15.55;14.32;;;;;;;24.63;100.00;99584.19;4769456;29;20306;-91
2022/06/05 07:24:35;;;;;;;13.90;12.70;;;;;;;24.64;100.00;99585.00;4769946;30;20395;-87
2022/06/05 07:27:02;;;;;;;12.88;11.88;;;;;;;24.69;100.00;99573.91;4769942;30;20331;-90
2022/06/05 07:29:29;;;;;;;13.13;12.05;;;;;;;25.02;100.00;99568.94;4764311;29;20242;-91
2022/06/05 07:31:56;;;;;;;14.52;13.40;;;;;;;24.71;100.00;99577.16;4755634;30;20273;-91
2022/06/05 07:34:23;;;;;;;13.57;12.38;;;;;;;24.73;100.00;99580.41;4753786;29;20335;-91
2022/06/05 07:36:50;;;;;;;13.52;12.50;;;;;;;24.01;100.00;99570.34;4741464;30;20600;-92
2022/06/05 07:39:16;;;;;;;13.75;12.70;;;;;;;24.36;100.00;99570.63;4741646;30;20331;-91
2022/06/05 07:41:43;;;;;;;13.38;12.38;;;;;;;24.59;100.00;99574.97;4755176;30;20234;-92
2022/06/05 07:44:10;;;;;;;12.50;11.48;;;;;;;24.78;100.00;99570.09;4753837;29;20239;-91
2022/06/05 07:46:37;;;;;;;13.75;12.65;;;;;;;24.69;100.00;99563.75;4754279;30;20244;-90
2022/06/05 07:49:05;;;;;;;12.20;11.30;;;;;;;24.99;100.00;99564.91;4740478;30;20236;-91
2022/06/05 07:54:26;;;;;;;12.43;11.52;;;;;;;24.86;100.00;99558.41;4766881;29;20595;-91
2022/06/05 07:56:56;;;;;;;13.73;12.63;;;;;;;25.06;100.00;99562.50;4749824;30;20763;-91
2022/06/05 07:59:24;;;;;;;12.13;11.23;;;;;;;25.07;100.00;99566.88;4740540;30;20241;-91
2022/06/05 08:01:56;;;;;;;11.68;10.77;;;;;;;25.20;100.00;99565.13;4764971;30;20238;-91
2022/06/05 08:04:25;;;;;;;12.32;11.43;;;;;;;25.22;100.00;99569.19;4755167;30;20243;-91
2022/06/05 08:06:53;;;;;;;11.00;10.20;;;;;;;25.18;100.00;99570.94;4746835;30;20323;-91
2022/06/05 08:09:20;;;;;;;12.45;11.45;;;;;;;25.40;100.00;99553.59;4735254;30;20328;-92
2022/06/05 08:11:47;;;;;;;12.15;11.23;;;;;;;25.67;100.00;99549.78;4755113;30;20271;-91
2022/06/05 08:14:14;;;;;;;13.68;12.30;;;;;;;25.56;100.00;99557.53;4758823;29;20330;-92
2022/06/05 08:16:43;;;;;;;12.18;11.20;;;;;;;25.58;100.00;99551.72;4754919;30;20246;-91
2022/06/05 08:19:12;;;;;;;11.13;10.27;;;;;;;25.57;99.24;99550.13;4768612;30;20590;-92
2022/06/05 08:21:40;;;;;;;12.30;11.10;;;;;;;25.83;97.84;99551.75;4757557;30;20704;-91
2022/06/05 08:24:07;;;;;;;11.88;10.88;;;;;;;25.93;94.65;99555.31;4748445;29;20248;-91
2022/06/05 08:26:34;;;;;;;11.43;10.52;;;;;;;26.09;95.04;99539.94;4751002;30;20337;-91
2022/06/05 08:29:02;;;;;;;11.13;10.23;;;;;;;26.11;94.32;99538.50;4758106;30;20246;-91
2022/06/05 08:31:29;;;;;;;11.85;11.00;;;;;;;26.16;94.57;99540.28;4753514;30;20243;-91
2022/06/05 08:33:57;;;;;;;12.80;11.70;;;;;;;26.31;88.37;99544.50;4745946;30;20251;-91
2022/06/05 08:36:25;;;;;;;11.13;10.23;;;;;;;26.15;91.06;99527.69;4742001;30;20311;-91
2022/06/05 08:42:16;;;;;;;10.13;9.15;;;;;;;25.74;91.63;99520.75;4758110;30;20239;-93
2022/06/05 08:44:54;;;;;;;9.60;8.70;;;;;;;25.98;94.86;99527.72;4751064;30;20248;-91
2022/06/05 08:47:26;;;;;;;10.13;9.32;;;;;;;26.25;88.81;99524.63;4767145;30;20238;-90
2022/06/05 08:50:03;;;;;;;10.00;9.30;;;;;;;26.15;89.28;99522.19;4739198;30;20251;-92
2022/06/05 08:52:51;;;;;;;9.23;8.52;;;;;;;26.02;96.72;99512.19;4754044;30;20245;-92
2022/06/05 08:55:32;;;;;;;8.90;8.20;;;;;;;26.24;87.61;99507.34;4751972;30;20390;-92
2022/06/05 08:58:20;;;;;;;8.55;7.90;;;;;;;26.63;84.61;99510.97;4782554;29;20246;-92
2022/06/05 09:00:55;;;;;;;8.30;7.70;;;;;;;26.83;80.41;99512.19;4738552;30;20240;-93
2022/06/05 09:03:32;;;;;;;9.10;8.40;;;;;;;27.20;81.06;99510.59;4750375;30;20267;-92
2022/06/05 09:06:05;;;;;;;7.78;7.20;;;;;;;27.05;78.28;99510.03;4754533;30;20239;-91
2022/06/05 09:08:36;;;;;;;7.57;7.07;;;;;;;26.97;76.77;99502.59;4740186;30;20257;-92
2022/06/05 09:11:11;;;;;;;7.85;7.25;;;;;;;26.99;77.87;99496.78;4757804;30;20274;-90
2022/06/05 09:14:10;;;;;;;8.23;7.60;;;;;;;27.23;76.03;99493.41;4756156;30;20239;-90
2022/06/05 09:16:42;;;;;;;8.50;7.80;;;;;;;26.59;78.61;99488.03;4779524;29;20267;-91
2022/06/05 09:19:12;;;;;;;7.47;6.97;;;;;;;26.89;77.90;99488.91;4755477;30;20262;-91
2022/06/05 09:22:15;;;;;;;6.40;5.80;;;;;;;26.95;70.69;99482.09;4760748;30;20282;-91
2022/06/05 09:25:09;;;;;;;7.50;6.90;;;;;;;26.68;74.44;99486.06;4753216;30;20245;-91
2022/06/05 09:27:49;;;;;;;7.03;6.53;;;;;;;26.67;71.92;99479.75;4776592;29;20243;-90
2022/06/05 09:30:23;;;;;;;6.90;6.40;;;;;;;26.39;75.34;99484.06;4779779;29;20239;-89
2022/06/05 09:33:07;;;;;;;7.13;6.60;;;;;;;26.52;83.75;99476.75;4754418;30;20333;-90
2022/06/05 09:35:45;;;;;;;7.88;7.28;;;;;;;26.13;79.78;99475.84;4752017;30;20241;-90
2022/06/05 09:38:24;;;;;;;7.72;6.85;;;;;;;26.60;74.24;99465.72;4735362;29;20269;-90
2022/06/05 09:41:06;;;;;;;7.22;6.60;;;;;;;26.39;78.47;99466.78;4751532;30;20253;-90
2022/06/05 09:43:42;;;;;;;7.53;6.82;;;;;;;26.58;75.37;99470.75;4767185;30;20287;-89
2022/06/05 09:46:35;;;;;;;6.93;6.43;;;;;;;27.03;78.12;99467.47;4747558;30;20333;-90
2022/06/05 09:49:13;;;;;;;7.45;6.82;;;;;;;27.43;70.49;99465.13;4763278;30;20270;-90
2022/06/05 09:51:42;;;;;;;6.90;6.40;;;;;;;27.31;69.79;99467.78;4764243;30;20274;-89
2022/06/05 09:54:23;;;;;;;6.68;6.20;;;;;;;27.79;65.70;99478.31;4754399;30;20247;-89
2022/06/05 10:00:08;;;;;;;7.32;6.75;;;;;;;28.58;62.34;99457.91;4749965;29;20239;-90
2022/06/05 10:02:36;;;;;;;7.30;6.63;;;;;;;28.83;61.08;99465.09;4754893;30;20322;-90
2022/06/05 10:05:27;;;;;;;5.45;5.07;;;;;;;28.99;55.83;99466.00;4740526;30;20244;-90
2022/06/05 10:08:05;;;;;;;5.85;5.35;;;;;;;29.20;55.49;99463.13;4738050;30;20231;-89
2022/06/05 10:10:35;;;;;;;4.60;4.30;;;;;;;29.17;49.77;99458.28;4756559;30;20250;-90
2022/06/05 10:13:17;;;;;;;4.45;4.15;;;;;;;29.44;48.94;99445.75;4765209;30;20318;-90
2022/06/05 10:15:50;;;;;;;3.28;3.08;;;;;;;29.26;42.36;99450.66;4751678;30;20272;-90
2022/06/05 10:18:31;;;;;;;2.80;2.60;;;;;;;29.42;40.57;99457.13;4752766;29;20259;-91
2022/06/05 10:21:06;;;;;;;3.90;3.58;;;;;;;29.55;43.61;99453.16;4749308;30;20257;-91
2022/06/05 10:23:39;;;;;;;4.40;4.10;;;;;;;29.51;44.16;99446.75;4751153;30;20242;-90
2022/06/05 10:26:17;;;;;;;3.70;3.40;;;;;;;29.64;46.47;99445.53;4765274;29;20323;-90
2022/06/05 10:28:45;;;;;;;4.50;4.20;;;;;;;29.72;48.70;99447.34;4750745;30;20236;-90
2022/06/05 10:31:21;;;;;;;4.72;4.43;;;;;;;29.67;48.81;99447.63;4736517;30;20270;-90
2022/06/05 10:34:13;;;;;;;5.28;4.88;;;;;;;29.63;50.95;99451.44;4760895;30;20318;-90
2022/06/05 10:37:04;;;;;;;5.22;4.93;;;;;;;29.78;48.75;99450.66;4768102;30;20236;-91
2022/06/05 10:39:49;;;;;;;5.10;4.80;;;;;;;29.94;48.58;99436.94;4765781;30;20713;-90
2022/06/05 10:42:36;;;;;;;6.25;5.82;;;;;;;29.95;53.22;99444.88;4753074;29;20264;-91
2022/06/05 10:45:13;;;;;;;5.70;5.30;;;;;;;30.23;53.26;99444.06;4755370;30;20239;-90
2022/06/05 10:48:05;;;;;;;6.13;5.63;;;;;;;30.53;51.37;99439.72;4784233;29;20255;-92
2022/06/05 10:50:44;;;;;;;6.00;5.60;;;;;;;30.63;50.92;99438.38;4770862;30;20293;-90
2022/06/05 10:53:17;;;;;;;5.90;5.50;;;;;;;30.65;52.85;99434.13;4770548;30;20244;-91
2022/06/05 10:56:05;;;;;;;6.18;5.68;;;;;;;30.49;54.58;99430.53;4740797;30;20235;-91
2022/06/05 10:58:39;;;;;;;6.25;5.85;;;;;;;30.96;51.05;99438.81;4759403;30;20368;-90
2022/06/05 11:01:12;;;;;;;6.88;6.35;;;;;;;31.02;50.30;99435.44;4753156;30;20236;-90
2022/06/05 11:03:56;;;;;;;6.60;6.20;;;;;;;31.02;52.36;99437.41;4754639;30;20255;-91
2022/06/05 11:07:02;;;;;;;7.25;6.72;;;;;;;30.98;50.27;99428.19;4768415;30;20267;-90
2022/06/05 11:10:11;;;;;;;7.10;6.60;;;;;;;30.97;51.82;99421.03;4781776;29;20336;-90
2022/06/05 11:15:49;;;;;;;6.95;6.45;;;;;;;31.39;50.96;99391.59;4770575;29;20622;-91
2022/06/05 11:18:49;;;;;;;7.05;6.55;;;;;;;31.70;53.64;99398.94;4760436;29;20239;-90
2022/06/05 11:21:17;;;;;;;7.13;6.63;;;;;;;32.00;51.90;99399.16;4753020;30;20239;-90
2022/06/05 11:23:51;;;;;;;7.43;6.82;;;;;;;31.88;51.68;99397.31;4756179;30;20231;-91
2022/06/05 11:26:33;;;;;;;7.80;7.30;;;;;;;31.66;51.56;99388.97;4755321;29;20301;-90
2022/06/05 11:29:18;;;;;;;7.78;7.18;;;;;;;31.77;50.64;99393.56;4770239;29;20649;-90
2022/06/05 11:32:10;;;;;;;7.10;6.60;;;;;;;31.59;52.67;99386.09;4783475;29;20248;-90
2022/06/05 11:35:10;;;;;;;6.82;6.32;;;;;;;32.21;48.99;99385.69;4759444;30;20235;-90
2022/06/05 11:38:24;;;;;;;7.20;6.70;;;;;;;32.93;45.35;99385.69;4783178;29;20660;-90
2022/06/05 11:41:33;;;;;;;6.50;6.00;;;;;;;33.69;42.00;99366.09;4723102;30;20240;-89
2022/06/05 11:44:22;;;;;;;6.32;5.90;;;;;;;33.72;41.54;99373.66;4733404;30;20237;-91
2022/06/05 11:47:03;;;;;;;6.55;6.15;;;;;;;33.40;42.95;99360.19;4764356;29;20270;-90
2022/06/05 11:49:35;;;;;;;6.38;5.78;;;;;;;33.10;42.12;99357.38;4736887;30;20244;-91
2022/06/05 11:52:08;;;;;;;6.40;5.97;;;;;;;33.14;41.38;99346.31;4754721;29;20232;-90
2022/06/05 11:54:58;;;;;;;5.63;5.20;;;;;;;33.27;40.55;99350.47;4769969;30;20666;-91
2022/06/05 11:57:34;;;;;;;4.90;4.50;;;;;;;33.85;39.22;99338.88;4751600;30;20264;-91
2022/06/05 12:00:05;;;;;;;4.88;4.55;;;;;;;34.07;38.17;99332.34;4738784;30;20338;-91
2022/06/05 12:02:48;;;;;;;4.88;4.50;;;;;;;34.02;37.49;99324.34;4754778;30;20232;-91
2022/06/05 12:05:21;;;;;;;4.93;4.40;;;;;;;34.42;36.96;99318.75;4754225;30;20243;-91